Time;durP1;ratioP1;P1;durP2;ratioP2;P2;SDS_P1;SDS_P2;PMS_P1;PMS_P2;Temp;Humidity;BMP_temperature;BMP_pressure;BME280_temperature;BME280_humidity;BME280_pressure;Samples;Min_cycle;Max_cycle;Signal;HPM_P1;HPM_P2
2024/04/05 00:01:07;;;;;;;27.87;5.83;;;;;;;9.80;100.00;101326.53;5029106;28;20204;-70
2024/04/05 00:03:33;;;;;;;36.60;6.30;;;;;;;9.77;100.00;101310.84;5049187;28;20946;-70
2024/04/05 00:05:58;;;;;;;40.87;6.53;;;;;;;10.62;100.00;101477.59;5031784;28;20198;-70
2024/04/05 00:08:25;;;;;;;35.67;6.87;;;;;;;9.72;100.00;101309.53;5049515;28;20198;-70
2024/04/05 00:10:51;;;;;;;32.77;6.83;;;;;;;9.80;100.00;101327.38;5048332;28;20184;-70
2024/04/05 00:13:17;;;;;;;39.77;6.27;;;;;;;10.50;100.00;101422.72;5047973;28;20544;-70
2024/04/05 00:15:43;;;;;;;35.07;8.30;;;;;;;10.52;100.00;101426.03;5028328;28;20771;-70
2024/04/05 00:18:08;;;;;;;32.53;6.53;;;;;;;10.34;100.00;101372.78;5048721;28;21526;-70
2024/04/05 00:20:34;;;;;;;43.53;8.00;;;;;;;10.40;100.00;101382.75;5049025;28;20207;-70
2024/04/05 00:22:59;;;;;;;44.33;8.43;;;;;;;9.44;100.00;101209.38;5046927;28;20207;-70
2024/04/05 00:25:25;;;;;;;41.20;7.20;;;;;;;10.77;100.00;101436.50;5030847;28;20278;-70
2024/04/05 00:27:53;;;;;;;38.63;7.33;;;;;;;10.06;100.00;101334.16;5030699;28;20191;-69
2024/04/05 00:30:18;;;;;;;50.77;8.73;;;;;;;9.89;100.00;101282.56;5029527;28;20187;-69
2024/04/05 00:32:44;;;;;;;44.33;7.70;;;;;;;9.83;100.00;101277.94;5044798;28;20458;-69
2024/04/05 00:35:09;;;;;;;31.93;6.63;;;;;;;10.80;100.00;101428.91;5048370;28;20199;-69
2024/04/05 00:37:34;;;;;;;44.23;6.37;;;;;;;10.76;100.00;101421.41;5045467;28;20724;-70
2024/04/05 00:40:00;;;;;;;47.43;8.73;;;;;;;10.62;100.00;101420.41;5047551;28;20235;-70
2024/04/05 00:42:25;;;;;;;41.20;7.50;;;;;;;10.75;100.00;101441.22;5028356;28;20235;-70
2024/04/05 00:44:51;;;;;;;32.20;6.83;;;;;;;10.19;100.00;101371.91;5048564;28;20188;-70
2024/04/05 00:47:16;;;;;;;42.07;6.90;;;;;;;10.25;100.00;101373.84;5048725;28;20215;-70
2024/04/05 00:49:42;;;;;;;36.50;6.80;;;;;;;9.92;100.00;101323.25;5047643;28;20183;-70
2024/04/05 00:52:08;;;;;;;45.30;8.27;;;;;;;9.79;100.00;101306.97;5047833;28;20207;-70
2024/04/05 00:54:35;;;;;;;41.73;7.90;;;;;;;10.36;100.00;101381.47;5047661;28;20194;-69
2024/04/05 00:57:01;;;;;;;36.83;6.70;;;;;;;9.90;100.00;101316.41;5044752;28;20440;-70
2024/04/05 00:59:27;;;;;;;35.17;7.00;;;;;;;10.19;100.00;101361.19;5048494;28;20434;-70
2024/04/05 01:01:53;;;;;;;29.13;7.03;;;;;;;9.81;100.00;101296.06;5031090;28;20211;-70
2024/04/05 01:04:18;;;;;;;34.63;6.53;;;;;;;10.37;100.00;101376.94;5048621;28;20491;-70
2024/04/05 01:06:44;;;;;;;45.50;7.73;;;;;;;10.63;100.00;101447.03;5045599;28;20238;-70
2024/04/05 01:09:11;;;;;;;29.07;7.13;;;;;;;9.73;100.00;101294.28;5027358;28;20568;-70
2024/04/05 01:11:37;;;;;;;33.97;6.73;;;;;;;10.54;100.00;101429.38;5048514;28;20472;-70
2024/04/05 01:14:02;;;;;;;37.03;8.07;;;;;;;10.08;100.00;101346.38;5046887;28;20438;-70
2024/04/05 01:16:33;;;;;;;27.73;7.00;;;;;;;10.64;100.00;101453.25;5028274;28;20246;-70
2024/04/05 01:18:59;;;;;;;37.87;7.30;;;;;;;10.30;100.00;101397.44;5048349;28;20607;-70
2024/04/05 01:21:24;;;;;;;39.73;6.73;;;;;;;9.81;100.00;101309.47;5028980;28;20468;-70
2024/04/05 01:23:50;;;;;;;35.33;6.47;;;;;;;10.55;100.00;101428.34;5047169;28;20190;-70
2024/04/05 01:26:15;;;;;;;31.67;6.57;;;;;;;9.76;100.00;101295.78;5029573;28;20184;-70
2024/04/05 01:28:41;;;;;;;32.50;7.23;;;;;;;10.64;100.00;101445.19;5046993;28;20878;-70
2024/04/05 01:31:06;;;;;;;36.70;6.10;;;;;;;10.56;100.00;101400.53;5047051;28;20262;-69
2024/04/05 01:33:32;;;;;;;33.10;7.83;;;;;;;10.21;100.00;101342.22;5029745;28;20202;-69
2024/04/05 01:35:57;;;;;;;34.53;7.50;;;;;;;10.32;100.00;101385.50;5047602;28;20190;-69
2024/04/05 01:38:22;;;;;;;33.33;6.63;;;;;;;9.70;100.00;101246.44;5049245;28;21112;-69
2024/04/05 01:40:48;;;;;;;41.23;8.20;;;;;;;10.32;100.00;101349.84;5048026;28;20215;-69
2024/04/05 01:43:13;;;;;;;29.17;6.33;;;;;;;9.96;100.00;101284.34;5045637;28;20211;-69
2024/04/05 01:45:39;;;;;;;38.03;6.50;;;;;;;10.58;100.00;101384.22;5048161;28;20194;-70
2024/04/05 01:48:05;;;;;;;33.57;6.80;;;;;;;10.34;100.00;101339.75;5046874;28;20192;-69
2024/04/05 01:50:30;;;;;;;30.80;7.40;;;;;;;9.85;100.00;101262.53;5029254;28;20176;-69
2024/04/05 01:52:56;;;;;;;35.27;6.37;;;;;;;10.30;100.00;101336.63;5027649;28;20457;-69
2024/04/05 01:55:21;;;;;;;35.83;6.23;;;;;;;10.60;100.00;101377.66;5045762;28;20183;-70
2024/04/05 01:57:46;;;;;;;28.20;5.73;;;;;;;10.07;100.00;101266.97;5046399;28;20555;-69
2024/04/05 02:00:12;;;;;;;29.37;6.80;;;;;;;9.92;100.00;101255.41;5045609;28;20204;-69
2024/04/05 02:02:37;;;;;;;33.43;6.37;;;;;;;9.85;100.00;101246.47;5029164;28;20198;-69
2024/04/05 02:05:03;;;;;;;34.17;5.93;;;;;;;10.53;100.00;101371.41;5044857;28;20191;-70
2024/04/05 02:07:29;;;;;;;28.00;6.20;;;;;;;10.68;100.00;101395.53;5046138;28;20185;-70
2024/04/05 02:09:55;;;;;;;26.23;5.87;;;;;;;10.03;100.00;101267.53;5045084;28;20215;-70
2024/04/05 02:12:22;;;;;;;27.20;5.47;;;;;;;9.86;100.00;101232.84;5028910;28;20199;-70
2024/04/05 02:14:48;;;;;;;26.93;5.60;;;;;;;9.76;100.00;101199.34;5031098;28;20537;-70
2024/04/05 02:17:13;;;;;;;34.03;5.60;;;;;;;10.66;100.00;101289.41;5048331;28;20525;-70
2024/04/05 02:19:39;;;;;;;22.03;5.40;;;;;;;10.42;100.00;101200.22;5045808;28;20218;-69
2024/04/05 02:22:11;;;;;;;31.13;5.80;;;;;;;10.53;100.00;101210.47;5044324;28;20222;-69
2024/04/05 02:24:36;;;;;;;23.40;4.73;;;;;;;10.23;100.00;101096.22;5048743;28;20183;-69
2024/04/05 02:27:02;;;;;;;33.00;6.10;;;;;;;9.88;100.00;101008.44;5027356;28;20436;-69
2024/04/05 02:29:28;;;;;;;27.60;4.83;;;;;;;10.30;100.00;101032.78;5046544;28;20294;-70
2024/04/05 02:31:53;;;;;;;22.20;5.20;;;;;;;10.59;100.00;101053.31;5044869;28;20207;-69
2024/04/05 02:34:19;;;;;;;22.93;5.90;;;;;;;9.80;100.00;100893.38;5047794;28;20270;-69
2024/04/05 02:36:44;;;;;;;28.77;5.00;;;;;;;10.68;100.00;101019.13;5046653;28;20186;-69
2024/04/05 02:39:10;;;;;;;27.70;5.40;;;;;;;10.47;100.00;101001.19;5028087;28;20456;-69
2024/04/05 02:41:36;;;;;;;31.70;5.33;;;;;;;10.40;100.00;101011.88;5030755;28;20215;-69
2024/04/05 02:44:01;;;;;;;28.00;4.30;;;;;;;10.52;100.00;101015.66;5044056;28;20194;-69
2024/04/05 02:46:27;;;;;;;28.17;5.13;;;;;;;9.76;100.00;100900.16;5044275;28;20185;-69
2024/04/05 02:48:56;;;;;;;36.73;5.43;;;;;;;10.53;100.00;101032.59;5045252;28;20180;-70
2024/04/05 02:51:21;;;;;;;24.67;5.60;;;;;;;9.66;100.00;100927.25;5042419;28;20289;-69
2024/04/05 02:53:47;;;;;;;26.57;5.23;;;;;;;10.56;100.00;101080.50;5047121;28;20509;-69
2024/04/05 02:56:16;;;;;;;23.90;5.87;;;;;;;10.38;100.00;101084.44;5049764;28;20266;-69
2024/04/05 02:58:42;;;;;;;34.50;7.10;;;;;;;10.46;100.00;101059.34;5031919;28;20433;-69
2024/04/05 03:01:07;;;;;;;31.47;5.17;;;;;;;10.39;100.00;101053.13;5030755;28;20467;-69
2024/04/05 03:03:33;;;;;;;22.63;5.00;;;;;;;9.79;100.00;100971.25;5031726;28;20426;-69
2024/04/05 03:05:58;;;;;;;22.03;5.13;;;;;;;10.29;100.00;101056.09;5050863;28;20644;-70
2024/04/05 03:08:24;;;;;;;26.77;5.53;;;;;;;9.69;100.00;100960.84;5049200;28;20192;-69
2024/04/05 03:10:49;;;;;;;30.57;6.60;;;;;;;10.55;100.00;101082.34;5032415;28;20176;-69
2024/04/05 03:13:15;;;;;;;24.10;5.20;;;;;;;9.77;100.00;100962.59;5050048;28;20214;-69
2024/04/05 03:15:40;;;;;;;22.93;5.20;;;;;;;10.55;100.00;101073.47;5050150;28;20287;-69
2024/04/05 03:18:06;;;;;;;21.53;4.40;;;;;;;9.95;100.00;100977.22;5048247;28;20262;-69
2024/04/05 03:20:31;;;;;;;21.40;6.07;;;;;;;10.52;100.00;101085.41;5032656;28;20583;-69
2024/04/05 03:22:57;;;;;;;24.60;5.27;;;;;;;9.84;100.00;100958.97;5047968;28;20478;-69
2024/04/05 03:25:22;;;;;;;29.97;6.97;;;;;;;9.83;100.00;100959.97;5031362;28;20187;-69
2024/04/05 03:27:48;;;;;;;22.63;4.43;;;;;;;10.22;100.00;101035.59;5047995;28;20187;-69
2024/04/05 03:30:14;;;;;;;25.47;5.33;;;;;;;9.89;100.00;100996.75;5048673;28;20184;-69
2024/04/05 03:32:39;;;;;;;24.73;5.03;;;;;;;10.58;100.00;101100.72;5047536;28;20937;-69
2024/04/05 03:35:06;;;;;;;25.77;5.33;;;;;;;10.30;100.00;101087.28;5050200;28;20180;-69
2024/04/05 03:37:32;;;;;;;27.23;5.63;;;;;;;9.72;100.00;100982.75;5031844;28;20287;-69
2024/04/05 03:39:57;;;;;;;29.77;4.90;;;;;;;10.21;100.00;101087.53;5034359;28;20433;-69
2024/04/05 03:42:23;;;;;;;24.53;5.83;;;;;;;9.98;100.00;101040.31;5048895;28;20464;-69
2024/04/05 03:44:48;;;;;;;22.60;4.57;;;;;;;10.05;100.00;101062.63;5050330;28;20191;-69
2024/04/05 03:47:14;;;;;;;24.43;4.90;;;;;;;10.30;100.00;101113.22;5048797;28;20186;-69
2024/04/05 03:49:40;;;;;;;22.77;5.23;;;;;;;10.21;100.00;101107.13;5049174;28;20647;-69
2024/04/05 03:52:06;;;;;;;32.63;7.20;;;;;;;10.15;100.00;101110.56;5050112;28;20203;-69
2024/04/05 03:54:31;;;;;;;28.43;5.23;;;;;;;10.19;100.00;101106.50;5031032;28;20180;-70
2024/04/05 03:56:56;;;;;;;29.00;5.73;;;;;;;10.27;100.00;101130.56;5047244;28;20531;-70
2024/04/05 03:59:22;;;;;;;20.10;5.03;;;;;;;10.39;100.00;101141.59;5048954;28;20215;-69
2024/04/05 04:01:53;;;;;;;22.77;4.27;;;;;;;10.34;100.00;101134.13;5049512;28;20211;-69
2024/04/05 04:04:19;;;;;;;25.27;5.20;;;;;;;9.52;100.00;101040.59;5050607;28;20187;-69
2024/04/05 04:06:44;;;;;;;27.23;5.23;;;;;;;10.50;100.00;101202.81;5026834;28;20437;-69
2024/04/05 04:09:14;;;;;;;38.87;6.07;;;;;;;10.43;100.00;101219.81;5047148;28;20216;-69
2024/04/05 04:11:40;;;;;;;28.40;5.37;;;;;;;10.24;100.00;101197.94;5031776;28;20200;-69
2024/04/05 04:14:06;;;;;;;23.63;3.90;;;;;;;10.49;100.00;101248.56;5030626;28;20455;-69
2024/04/05 04:16:31;;;;;;;20.27;4.37;;;;;;;9.56;100.00;101146.31;5047701;28;20211;-69
2024/04/05 04:18:57;;;;;;;30.30;6.23;;;;;;;9.86;100.00;101195.34;5049159;28;20192;-69
2024/04/05 04:21:24;;;;;;;27.97;5.27;;;;;;;10.46;100.00;101319.50;5027792;28;20215;-69
2024/04/05 04:23:50;;;;;;;25.63;5.43;;;;;;;10.06;100.00;101261.78;5048231;28;20831;-69
2024/04/05 04:26:16;;;;;;;26.57;5.63;;;;;;;10.25;100.00;101306.00;5047136;28;20438;-69
2024/04/05 04:28:42;;;;;;;29.50;5.43;;;;;;;9.52;100.00;101190.56;5050581;28;20438;-69
2024/04/05 04:31:21;;;;;;;24.87;5.27;;;;;;;9.59;100.00;101237.00;5028478;28;20180;-69
2024/04/05 04:33:47;;;;;;;24.00;4.73;;;;;;;9.77;100.00;101254.56;5050100;28;20433;-69
2024/04/05 04:36:13;;;;;;;23.50;4.90;;;;;;;10.26;100.00;101327.22;5047256;28;20804;-69
2024/04/05 04:38:38;;;;;;;31.90;6.17;;;;;;;10.43;100.00;101357.41;5046659;28;20446;-69
2024/04/05 04:41:04;;;;;;;28.53;4.83;;;;;;;10.15;100.00;101331.22;5049600;28;20203;-69
2024/04/05 04:43:31;;;;;;;32.47;5.00;;;;;;;10.52;100.00;101368.88;5047834;28;20469;-69
2024/04/05 04:45:57;;;;;;;32.30;5.67;;;;;;;10.06;100.00;101296.63;5028721;28;20188;-69
2024/04/05 04:48:24;;;;;;;28.20;5.83;;;;;;;10.57;100.00;101387.94;5030031;28;20537;-69
2024/04/05 04:50:49;;;;;;;31.10;4.60;;;;;;;10.56;100.00;101395.16;5048004;28;20526;-69
2024/04/05 04:53:16;;;;;;;30.17;6.00;;;;;;;10.47;100.00;101376.66;5047276;28;21085;-69
2024/04/05 04:55:44;;;;;;;22.97;5.73;;;;;;;10.42;100.00;101379.91;5027836;28;20253;-69
2024/04/05 04:58:11;;;;;;;27.60;5.90;;;;;;;10.27;100.00;101365.63;5031084;28;20444;-69
2024/04/05 05:00:36;;;;;;;35.00;6.50;;;;;;;10.02;100.00;101314.94;5044152;28;20462;-69
2024/04/05 05:03:02;;;;;;;27.50;5.30;;;;;;;9.41;100.00;101236.53;5046457;28;20456;-70
2024/04/05 05:05:27;;;;;;;29.53;5.90;;;;;;;10.26;100.00;101375.50;5030117;28;20210;-69
2024/04/05 05:07:53;;;;;;;31.00;5.97;;;;;;;9.43;100.00;101248.72;5047354;28;20192;-69
2024/04/05 05:10:18;;;;;;;29.27;5.63;;;;;;;9.58;100.00;101291.59;5031630;28;20237;-69
2024/04/05 05:12:44;;;;;;;30.73;6.20;;;;;;;10.46;100.00;101428.63;5048328;28;20207;-69
2024/04/05 05:15:09;;;;;;;39.93;6.90;;;;;;;10.04;100.00;101363.84;5030532;28;20298;-69
2024/04/05 05:17:36;;;;;;;27.50;6.87;;;;;;;10.39;100.00;101431.22;5046915;28;20271;-69
2024/04/05 05:20:06;;;;;;;36.80;6.67;;;;;;;9.54;100.00;101314.38;5049372;28;20230;-69
2024/04/05 05:22:32;;;;;;;31.20;7.10;;;;;;;9.57;100.00;101289.09;5043696;28;20453;-69
2024/04/05 05:24:57;;;;;;;29.17;5.47;;;;;;;10.48;100.00;101443.53;5031304;28;20426;-69
2024/04/05 05:27:22;;;;;;;28.43;6.27;;;;;;;9.65;100.00;101319.31;5046956;28;20250;-69
2024/04/05 05:29:48;;;;;;;26.07;5.23;;;;;;;10.16;100.00;101391.84;5046525;28;20175;-69
2024/04/05 05:32:13;;;;;;;31.73;6.30;;;;;;;10.36;100.00;101436.94;5044271;28;20888;-69
2024/04/05 05:34:38;;;;;;;30.23;6.43;;;;;;;10.45;100.00;101460.00;5048012;28;20179;-69
2024/04/05 05:37:04;;;;;;;24.60;5.60;;;;;;;9.40;100.00;101307.97;5047815;28;20191;-69
2024/04/05 05:39:29;;;;;;;35.40;8.00;;;;;;;9.90;100.00;101391.44;5045635;28;20265;-69
2024/04/05 05:41:55;;;;;;;42.93;8.70;;;;;;;10.35;100.00;101460.22;5043368;28;20207;-69
2024/04/05 05:44:20;;;;;;;29.37;7.50;;;;;;;10.39;100.00;101456.19;5046991;28;20629;-69
2024/04/05 05:46:46;;;;;;;28.97;7.00;;;;;;;10.48;100.00;101475.72;5030234;28;20252;-69
2024/04/05 05:49:12;;;;;;;28.83;6.40;;;;;;;10.39;100.00;101452.69;5046619;28;20332;-69
2024/04/05 05:51:38;;;;;;;24.07;5.53;;;;;;;10.50;100.00;101470.16;5028199;28;20203;-69
2024/04/05 05:54:03;;;;;;;25.83;5.10;;;;;;;10.33;100.00;101435.47;5045529;28;20438;-69
2024/04/05 05:56:28;;;;;;;22.43;5.20;;;;;;;10.54;100.00;101468.78;5046607;28;20209;-69
2024/04/05 05:58:54;;;;;;;26.93;5.50;;;;;;;9.42;100.00;101299.75;5046054;28;20191;-69
2024/04/05 06:01:19;;;;;;;25.17;4.57;;;;;;;10.44;100.00;101446.75;5047233;28;20216;-69
2024/04/05 06:03:45;;;;;;;22.93;5.30;;;;;;;10.14;100.00;101399.25;5046755;28;20188;-69
2024/04/05 06:06:10;;;;;;;27.87;4.93;;;;;;;10.58;100.00;101454.81;5048043;28;20180;-69
2024/04/05 06:08:39;;;;;;;26.20;5.23;;;;;;;10.56;100.00;101456.88;5048049;28;20214;-69
2024/04/05 06:11:04;;;;;;;22.80;5.10;;;;;;;9.77;100.00;101325.06;5029253;28;20286;-69
2024/04/05 06:13:29;;;;;;;24.07;5.40;;;;;;;10.50;100.00;101438.81;5046469;28;20477;-69
2024/04/05 06:15:57;;;;;;;35.33;5.13;;;;;;;9.74;100.00;101323.56;5043543;28;20567;-69
2024/04/05 06:18:25;;;;;;;32.63;6.57;;;;;;;9.74;100.00;101306.66;5044693;28;20187;-69
2024/04/05 06:20:55;;;;;;;28.50;5.37;;;;;;;9.97;100.00;101309.28;5047348;28;20469;-69
2024/04/05 06:23:20;;;;;;;28.57;5.50;;;;;;;9.72;100.00;101255.13;5045810;28;20456;-69
2024/04/05 06:26:06;;;;;;;23.23;4.97;;;;;;;10.79;100.00;101408.47;5047267;28;20434;-69
2024/04/05 06:28:32;;;;;;;23.97;4.67;;;;;;;10.74;100.00;101391.28;5044379;28;20544;-69
2024/04/05 06:31:00;;;;;;;24.63;5.17;;;;;;;10.62;100.00;101402.47;5026893;28;20445;-69
2024/04/05 06:33:26;;;;;;;26.30;4.53;;;;;;;10.19;100.00;101312.91;5045569;28;20191;-69
2024/04/05 06:35:59;;;;;;;22.60;4.40;;;;;;;10.94;100.00;101429.09;5029091;28;20855;-68
2024/04/05 06:38:25;;;;;;;22.57;4.50;;;;;;;10.02;100.00;101290.81;5028447;28;20977;-68
2024/04/05 06:40:58;;;;;;;20.87;4.40;;;;;;;10.09;100.00;101299.78;5045790;28;20477;-69
2024/04/05 06:43:28;;;;;;;25.40;4.57;;;;;;;10.83;100.00;101408.94;5044267;28;20450;-69
2024/04/05 06:46:03;;;;;;;24.30;4.90;;;;;;;10.49;100.00;101345.13;5045479;28;20437;-69
2024/04/05 06:48:30;;;;;;;23.57;4.77;;;;;;;10.25;100.00;101322.06;5026139;28;20438;-69
2024/04/05 06:50:56;;;;;;;21.77;5.43;;;;;;;10.17;100.00;101302.38;5042722;28;20521;-69
2024/04/05 06:53:32;;;;;;;22.63;4.60;;;;;;;10.44;100.00;101318.84;5027453;28;20623;-69
2024/04/05 06:55:57;;;;;;;27.63;4.30;;;;;;;10.77;100.00;101350.66;5044494;28;20183;-69
2024/04/05 06:58:23;;;;;;;20.40;5.00;;;;;;;10.82;100.00;101342.88;5045562;28;20442;-69
2024/04/05 07:00:49;;;;;;;24.40;4.80;;;;;;;10.93;100.00;101369.19;5027842;28;20222;-69
2024/04/05 07:03:14;;;;;;;32.13;5.53;;;;;;;9.95;100.00;101204.13;5026096;28;20207;-69
2024/04/05 07:05:41;;;;;;;19.33;4.53;;;;;;;10.53;100.00;101327.63;5045476;28;20926;-69
2024/04/05 07:08:07;;;;;;;24.13;5.30;;;;;;;10.32;100.00;101264.03;5028927;28;20188;-69
2024/04/05 07:10:34;;;;;;;25.57;4.30;;;;;;;10.39;100.00;101267.63;5046451;28;20429;-69
2024/04/05 07:13:00;;;;;;;26.93;6.03;;;;;;;10.53;100.00;101287.38;5040141;28;20496;-69
2024/04/05 07:15:25;;;;;;;23.30;4.60;;;;;;;10.70;100.00;101302.25;5046084;28;20442;-69
2024/04/05 07:17:52;;;;;;;24.17;4.73;;;;;;;11.25;100.00;101392.09;5043304;28;20184;-69
2024/04/05 07:20:26;;;;;;;23.73;5.13;;;;;;;11.36;100.00;101408.72;5043970;28;20211;-69
2024/04/05 07:22:53;;;;;;;20.40;4.83;;;;;;;10.40;100.00;101231.75;5028274;28;20861;-69
2024/04/05 07:25:22;;;;;;;22.40;5.20;;;;;;;10.96;100.00;101323.19;5046071;28;20475;-68
2024/04/05 07:27:51;;;;;;;24.57;5.80;;;;;;;11.22;100.00;101380.88;5029104;28;20441;-69
2024/04/05 07:30:18;;;;;;;25.43;4.70;;;;;;;10.64;100.00;101286.91;5028928;28;20438;-69
2024/04/05 07:32:44;;;;;;;21.23;4.77;;;;;;;10.73;100.00;101271.53;5027590;28;20493;-69
2024/04/05 07:35:09;;;;;;;32.47;6.33;;;;;;;11.50;100.00;101379.13;5027284;28;20438;-69
2024/04/05 07:37:35;;;;;;;24.60;5.60;;;;;;;10.88;100.00;101309.91;5046065;28;20457;-69
2024/04/05 07:40:00;;;;;;;29.50;6.00;;;;;;;11.39;100.00;101357.31;5043663;28;20203;-69
2024/04/05 07:42:26;;;;;;;26.13;5.20;;;;;;;11.54;100.00;101358.06;5048364;28;20208;-69
2024/04/05 07:44:54;;;;;;;28.27;6.20;;;;;;;11.21;100.00;101315.63;5031717;28;20413;-69
2024/04/05 07:47:19;;;;;;;28.37;5.40;;;;;;;11.19;100.00;101298.88;5045648;28;20442;-69
2024/04/05 07:49:45;;;;;;;24.93;5.07;;;;;;;11.60;100.00;101368.06;5036904;28;20850;-69
2024/04/05 07:52:10;;;;;;;38.70;5.77;;;;;;;11.42;100.00;101333.59;5048405;28;20199;-69
2024/04/05 07:54:36;;;;;;;22.60;5.17;;;;;;;11.43;100.00;101331.75;5049785;28;20196;-69
2024/04/05 07:57:01;;;;;;;21.13;5.33;;;;;;;11.72;100.00;101371.06;5048232;28;20558;-68
2024/04/05 07:59:26;;;;;;;23.50;5.77;;;;;;;11.77;100.00;101368.63;5032371;28;20180;-68
2024/04/05 08:01:52;;;;;;;25.30;5.57;;;;;;;11.14;100.00;101266.41;5048380;28;20218;-68
2024/04/05 08:04:17;;;;;;;23.90;5.13;;;;;;;10.89;100.00;101204.22;5049669;28;20198;-68
2024/04/05 08:06:43;;;;;;;29.80;6.03;;;;;;;11.50;100.00;101320.03;5033264;28;20229;-68
2024/04/05 08:09:08;;;;;;;22.67;5.23;;;;;;;11.66;100.00;101332.38;5048483;28;20602;-69
2024/04/05 08:11:34;;;;;;;26.40;5.50;;;;;;;11.65;100.00;101322.63;5029136;28;20630;-69
2024/04/05 08:13:59;;;;;;;19.07;5.27;;;;;;;11.07;100.00;101209.94;5048645;28;20188;-69
2024/04/05 08:16:26;;;;;;;13.30;3.73;;;;;;;12.01;100.00;101334.34;5031141;28;20192;-69
2024/04/05 08:18:52;;;;;;;20.90;5.80;;;;;;;11.19;100.00;101196.00;5031098;28;20183;-69
2024/04/05 08:21:18;;;;;;;17.40;4.70;;;;;;;11.47;100.00;101194.16;5049051;28;20524;-69
2024/04/05 08:23:44;;;;;;;25.93;5.30;;;;;;;11.43;100.00;101192.09;5029831;28;20941;-69
2024/04/05 08:26:10;;;;;;;18.23;4.83;;;;;;;11.79;100.00;101245.63;5047003;28;21080;-69
2024/04/05 08:28:35;;;;;;;19.90;4.57;;;;;;;11.31;100.00;101171.13;5029715;28;20460;-69
2024/04/05 08:31:02;;;;;;;26.10;5.77;;;;;;;12.32;100.00;101302.44;5049859;28;20184;-69
2024/04/05 08:33:28;;;;;;;17.33;4.57;;;;;;;11.64;100.00;101164.31;5029338;28;20241;-68
2024/04/05 08:35:54;;;;;;;17.33;4.30;;;;;;;12.40;100.00;101279.94;5046854;28;20919;-69
2024/04/05 08:38:20;;;;;;;22.07;4.90;;;;;;;12.35;100.00;101250.94;5047684;28;20247;-68
2024/04/05 08:40:47;;;;;;;19.33;5.00;;;;;;;11.76;100.00;101152.78;5028386;28;20509;-69
2024/04/05 08:43:15;;;;;;;21.03;6.07;;;;;;;11.71;100.00;101130.22;5046909;28;20203;-69
2024/04/05 08:45:42;;;;;;;23.63;4.83;;;;;;;11.80;100.00;101128.22;5049479;28;20438;-68
2024/04/05 08:48:08;;;;;;;20.17;4.70;;;;;;;11.68;100.00;101093.00;5030687;28;20844;-69
2024/04/05 08:50:37;;;;;;;25.87;5.50;;;;;;;12.58;100.00;101209.41;5048151;28;20463;-69
2024/04/05 08:53:04;;;;;;;23.27;5.50;;;;;;;12.53;100.00;101195.75;5045674;28;20461;-69
2024/04/05 08:55:30;;;;;;;19.13;4.30;;;;;;;12.49;100.00;101195.31;5042732;28;20506;-69
2024/04/05 08:57:58;;;;;;;17.93;4.60;;;;;;;11.81;100.00;101055.47;5046770;28;20464;-69
2024/04/05 09:00:24;;;;;;;20.23;4.23;;;;;;;11.90;100.00;101078.47;5047801;28;20520;-69
2024/04/05 09:02:54;;;;;;;21.70;5.00;;;;;;;11.91;100.00;101071.22;5029587;28;20863;-69
2024/04/05 09:05:20;;;;;;;16.53;4.10;;;;;;;12.85;100.00;101213.84;5047291;28;20184;-69
2024/04/05 09:07:49;;;;;;;21.07;4.37;;;;;;;12.06;100.00;101071.06;5049719;28;20461;-69
2024/04/05 09:10:16;;;;;;;18.13;4.40;;;;;;;12.91;100.00;101203.28;5027292;28;20259;-69
2024/04/05 09:12:53;;;;;;;19.63;4.87;;;;;;;12.03;100.00;101082.22;5029561;28;20446;-69
2024/04/05 09:15:24;;;;;;;17.27;4.70;;;;;;;12.94;100.00;101189.41;5048567;28;20626;-69
2024/04/05 09:17:50;;;;;;;18.10;4.17;;;;;;;12.21;100.00;101060.97;5027668;28;20533;-69
2024/04/05 09:20:29;;;;;;;18.27;3.90;;;;;;;12.76;100.00;101120.84;5046642;28;20520;-69
2024/04/05 09:23:07;;;;;;;20.03;4.33;;;;;;;12.31;100.00;101029.13;5029467;28;20449;-68
2024/04/05 09:25:40;;;;;;;16.60;4.50;;;;;;;13.18;100.00;101139.47;5046337;28;20440;-68
2024/04/05 09:28:20;;;;;;;12.37;3.30;;;;;;;12.43;100.00;101027.47;5046495;28;20437;-68
2024/04/05 09:30:49;;;;;;;20.37;4.70;;;;;;;12.47;100.00;101009.06;5047769;28;20437;-68
2024/04/05 09:33:21;;;;;;;20.20;4.70;;;;;;;13.05;100.00;101086.47;5045658;28;20449;-68
2024/04/05 09:35:48;;;;;;;14.57;3.93;;;;;;;12.88;100.00;101078.81;5046223;28;20446;-68
2024/04/05 09:38:14;;;;;;;13.47;4.00;;;;;;;12.65;100.00;101029.97;5044588;28;20540;-68
2024/04/05 09:40:40;;;;;;;15.57;4.07;;;;;;;13.36;100.00;101128.91;5047971;28;20549;-69
2024/04/05 09:43:07;;;;;;;12.90;3.40;;;;;;;13.10;100.00;101074.03;5045422;28;20445;-69
2024/04/05 09:45:35;;;;;;;17.50;3.67;;;;;;;13.17;100.00;101084.78;5029580;28;20422;-69
2024/04/05 09:48:03;;;;;;;16.97;3.40;;;;;;;13.37;100.00;101118.97;5047012;28;20438;-69
2024/04/05 09:50:30;;;;;;;13.50;3.87;;;;;;;13.28;100.00;101108.44;5029074;28;20520;-69
2024/04/05 09:52:56;;;;;;;14.03;3.37;;;;;;;13.33;100.00;101094.31;5048666;28;20529;-69
2024/04/05 09:55:23;;;;;;;10.80;3.43;;;;;;;13.17;100.00;101079.41;5045306;28;21023;-69
2024/04/05 09:57:49;;;;;;;17.53;3.60;;;;;;;13.10;100.00;101065.97;5044908;28;20449;-69
2024/04/05 10:00:20;;;;;;;15.10;3.67;;;;;;;12.77;100.00;101055.22;5047713;28;20440;-69
2024/04/05 10:02:47;;;;;;;17.20;3.50;;;;;;;12.68;100.00;101059.16;5045229;28;20204;-69
2024/04/05 10:05:26;;;;;;;18.27;4.10;;;;;;;12.16;100.00;101013.19;5047311;28;20809;-68
2024/04/05 10:07:52;;;;;;;24.63;5.00;;;;;;;12.07;100.00;101010.91;5029919;28;20956;-68
2024/04/05 10:10:34;;;;;;;20.40;5.50;;;;;;;12.72;100.00;101121.47;5046251;28;20434;-68
2024/04/05 10:13:23;;;;;;;16.20;4.80;;;;;;;12.02;100.00;101003.44;5046057;28;21466;-68
2024/04/05 10:15:59;;;;;;;20.67;5.30;;;;;;;12.71;100.00;101119.81;5044027;28;20466;-69
2024/04/05 10:18:25;;;;;;;16.77;4.43;;;;;;;12.91;100.00;101146.75;5028416;28;20445;-69
2024/04/05 10:21:03;;;;;;;17.27;4.80;;;;;;;11.84;100.00;101000.47;5048683;28;20470;-69
2024/04/05 10:23:29;;;;;;;14.93;4.53;;;;;;;12.75;100.00;101145.28;5044778;28;20519;-69
2024/04/05 10:25:54;;;;;;;14.30;4.50;;;;;;;12.12;100.00;101078.31;5046061;28;20970;-69
2024/04/05 10:28:21;;;;;;;16.70;4.57;;;;;;;12.46;100.00;101141.09;5046583;28;21109;-68
2024/04/05 10:30:46;;;;;;;18.90;3.97;;;;;;;12.20;100.00;101105.03;5028647;28;20290;-68
2024/04/05 10:33:18;;;;;;;11.77;4.27;;;;;;;12.44;100.00;101147.50;5025819;28;21046;-68
2024/04/05 10:35:43;;;;;;;13.00;3.97;;;;;;;12.84;100.00;101219.41;5026005;28;20187;-69
2024/04/05 10:38:09;;;;;;;17.27;4.47;;;;;;;12.47;100.00;101153.50;5045713;28;20488;-69
2024/04/05 10:40:34;;;;;;;16.43;5.20;;;;;;;12.15;100.00;101126.31;5047202;28;20572;-69
2024/04/05 10:43:10;;;;;;;16.20;4.27;;;;;;;11.90;100.00;101093.78;5047626;28;20261;-69
2024/04/05 10:45:37;;;;;;;16.43;4.63;;;;;;;12.55;100.00;101221.41;5045661;28;20183;-69
2024/04/05 10:48:04;;;;;;;15.47;4.97;;;;;;;11.93;100.00;101117.56;5046188;28;20522;-69
2024/04/05 10:50:30;;;;;;;17.13;4.90;;;;;;;11.96;100.00;101117.16;5028085;28;20513;-69
2024/04/05 10:52:55;;;;;;;15.00;4.47;;;;;;;12.69;100.00;101238.44;5047792;28;20445;-69
2024/04/05 10:55:21;;;;;;;10.97;4.63;;;;;;;12.44;100.00;101201.31;5044563;28;20195;-69
2024/04/05 10:57:47;;;;;;;17.77;5.13;;;;;;;12.33;100.00;101187.63;5047175;28;20286;-69
2024/04/05 11:00:14;;;;;;;14.77;5.13;;;;;;;11.91;100.00;101115.06;5044747;28;20422;-69
2024/04/05 11:02:42;;;;;;;18.37;5.07;;;;;;;12.70;100.00;101242.78;5027926;28;20203;-69
2024/04/05 11:05:13;;;;;;;16.03;4.80;;;;;;;12.72;100.00;101239.88;5045995;28;21062;-69
2024/04/05 11:07:41;;;;;;;18.73;4.73;;;;;;;11.85;100.00;101098.88;5042819;28;20442;-69
2024/04/05 11:10:33;;;;;;;18.47;5.33;;;;;;;12.51;100.00;101203.19;5048437;28;20427;-69